createdAt,value
2023-02-18T00:01:48.658Z,1.75
2023-02-18T00:04:50.158Z,1.67
2023-02-18T00:07:51.811Z,1.27
2023-02-18T00:10:53.990Z,1.20
2023-02-18T00:13:59.276Z,1.75
2023-02-18T00:17:00.778Z,1.27
2023-02-18T00:20:02.366Z,1.77
2023-02-18T00:23:03.902Z,2.20
2023-02-18T00:26:17.090Z,2.03
2023-02-18T00:29:19.775Z,1.87
2023-02-18T00:35:24.420Z,1.98
2023-02-18T00:38:25.837Z,1.73
2023-02-18T00:41:29.783Z,1.67
2023-02-18T00:44:31.928Z,2.15
2023-02-18T00:47:33.447Z,1.00
2023-02-18T00:50:35.664Z,1.20
2023-02-18T00:53:37.609Z,1.55
2023-02-18T00:56:39.073Z,1.45
2023-02-18T00:59:40.543Z,1.30
2023-02-18T01:02:42.102Z,1.17
2023-02-18T01:05:44.695Z,1.10
2023-02-18T01:08:46.134Z,0.70
2023-02-18T01:11:47.574Z,1.52
2023-02-18T01:14:49.016Z,0.80
2023-02-18T01:17:51.800Z,0.90
2023-02-18T01:20:53.730Z,1.00
2023-02-18T01:23:55.287Z,1.23
2023-02-18T01:26:56.759Z,1.15
2023-02-18T01:29:58.318Z,1.17
2023-02-18T01:33:00.269Z,1.25
2023-02-18T01:36:01.951Z,0.85
2023-02-18T01:39:05.593Z,0.98
2023-02-18T01:42:07.207Z,0.82
2023-02-18T01:45:47.754Z,1.13
2023-02-18T01:48:58.401Z,1.33
2023-02-18T01:52:16.139Z,1.38
2023-02-18T01:55:18.790Z,1.38
2023-02-18T01:58:21.004Z,1.70
2023-02-18T02:01:23.951Z,1.05
2023-02-18T02:04:26.277Z,1.20
2023-02-18T02:07:28.724Z,1.33
2023-02-18T02:10:41.020Z,1.10
2023-02-18T02:14:16.006Z,0.80
2023-02-18T02:17:39.706Z,1.05
2023-02-18T02:20:45.124Z,0.98
2023-02-18T02:27:25.255Z,0.95
2023-02-18T02:30:53.055Z,1.27
2023-02-18T02:34:17.695Z,0.98
2023-02-18T02:40:27.799Z,1.33
2023-02-18T02:43:48.444Z,1.35
2023-02-18T02:47:02.228Z,0.98
2023-02-18T02:50:09.625Z,1.33
2023-02-18T02:53:20.253Z,1.35
2023-02-18T02:56:25.443Z,1.38
2023-02-18T02:59:29.370Z,1.65
2023-02-18T03:03:09.638Z,1.27
2023-02-18T03:06:27.108Z,1.65
2023-02-18T03:09:34.702Z,1.60
2023-02-18T03:12:51.417Z,1.50
2023-02-18T03:16:16.689Z,1.23
2023-02-18T03:19:28.950Z,1.40
2023-02-18T03:22:39.904Z,1.70
2023-02-18T03:25:42.300Z,1.67
2023-02-18T03:28:45.687Z,1.58
2023-02-18T03:31:52.742Z,1.55
2023-02-18T03:35:00.808Z,1.83
2023-02-18T03:38:17.443Z,1.50
2023-02-18T03:41:18.926Z,1.48
2023-02-18T03:44:20.657Z,1.15
2023-02-18T03:47:23.957Z,1.45
2023-02-18T03:50:25.460Z,1.55
2023-02-18T03:53:26.981Z,1.23
2023-02-18T03:56:28.427Z,1.63
2023-02-18T03:59:30.095Z,1.35
2023-02-18T04:02:31.632Z,2.03
2023-02-18T04:05:33.135Z,1.83
2023-02-18T04:08:34.805Z,1.70
2023-02-18T04:11:38.937Z,2.35
2023-02-18T04:14:40.434Z,1.90
2023-02-18T04:17:42.006Z,1.85
2023-02-18T04:20:43.893Z,1.65
2023-02-18T04:23:45.394Z,1.85
2023-02-18T04:26:46.922Z,1.88
2023-02-18T04:29:48.474Z,1.65
2023-02-18T04:32:49.948Z,1.48
2023-02-18T04:35:51.419Z,1.45
2023-02-18T04:38:52.977Z,1.65
2023-02-18T04:41:54.564Z,1.70
2023-02-18T04:44:56.079Z,1.70
2023-02-18T04:47:57.631Z,2.00
2023-02-18T04:50:59.053Z,2.15
2023-02-18T04:54:00.509Z,1.95
2023-02-18T04:57:02.103Z,2.33
2023-02-18T05:00:06.854Z,2.10
2023-02-18T05:03:08.329Z,1.73
2023-02-18T05:06:10.177Z,1.95
2023-02-18T05:09:12.451Z,2.10
2023-02-18T05:12:13.973Z,1.73
2023-02-18T05:15:15.610Z,1.95
2023-02-18T05:18:17.064Z,2.22
2023-02-18T05:21:18.714Z,2.28
2023-02-18T05:24:20.231Z,2.30
2023-02-18T05:27:21.713Z,1.98
2023-02-18T05:30:23.243Z,1.95
2023-02-18T05:33:24.933Z,1.65
2023-02-18T05:36:26.860Z,2.15
2023-02-18T05:39:28.366Z,1.80
2023-02-18T05:42:29.878Z,2.22
2023-02-18T05:45:31.458Z,1.90
2023-02-18T05:48:32.948Z,1.42
2023-02-18T05:51:34.471Z,1.70
2023-02-18T05:54:36.937Z,1.70
2023-02-18T05:57:38.409Z,1.45
2023-02-18T06:00:39.906Z,1.88
2023-02-18T06:03:41.418Z,1.45
2023-02-18T06:06:43.237Z,1.42
2023-02-18T06:09:44.732Z,1.45
2023-02-18T06:12:46.270Z,1.60
2023-02-18T06:15:51.701Z,1.80
2023-02-18T06:18:53.293Z,1.30
2023-02-18T06:21:56.196Z,1.27
2023-02-18T06:24:57.674Z,1.50
2023-02-18T06:27:59.187Z,1.30
2023-02-18T06:31:00.787Z,1.80
2023-02-18T06:34:02.314Z,1.60
2023-02-18T06:37:03.867Z,1.77
2023-02-18T06:40:06.832Z,2.30
2023-02-18T06:43:08.359Z,1.38
2023-02-18T06:46:10.279Z,1.67
2023-02-18T06:49:11.989Z,1.77
2023-02-18T06:52:14.579Z,1.85
2023-02-18T06:55:16.101Z,2.60
2023-02-18T06:58:17.829Z,1.88
2023-02-18T07:01:19.353Z,1.70
2023-02-18T07:04:20.806Z,1.83
2023-02-18T07:07:22.234Z,1.60
2023-02-18T07:10:23.976Z,1.30
2023-02-18T07:13:25.472Z,1.70
2023-02-18T07:16:27.151Z,1.40
2023-02-18T07:19:28.649Z,1.70
2023-02-18T07:22:30.364Z,1.63
2023-02-18T07:25:31.875Z,1.60
2023-02-18T07:28:33.401Z,1.60
2023-02-18T07:31:34.893Z,1.52
2023-02-18T07:34:36.450Z,1.75
2023-02-18T07:37:37.896Z,1.40
2023-02-18T07:40:39.387Z,1.70
2023-02-18T07:43:40.832Z,1.50
2023-02-18T07:46:42.711Z,1.60
2023-02-18T07:49:44.433Z,1.77
2023-02-18T07:52:45.904Z,1.42
2023-02-18T07:55:50.317Z,1.35
2023-02-18T07:58:51.835Z,1.55
2023-02-18T08:01:53.330Z,0.85
2023-02-18T08:04:54.833Z,1.20
2023-02-18T08:07:56.359Z,1.17
2023-02-18T08:11:07.152Z,1.08
2023-02-18T08:14:15.005Z,1.00
2023-02-18T08:17:17.553Z,1.05
2023-02-18T08:20:19.166Z,1.20
2023-02-18T08:23:21.826Z,1.20
2023-02-18T08:26:23.331Z,1.40
2023-02-18T08:29:24.804Z,0.93
2023-02-18T08:32:29.446Z,1.48
2023-02-18T08:35:30.981Z,1.27
2023-02-18T08:38:32.438Z,1.13
2023-02-18T08:41:33.912Z,1.13
2023-02-18T08:44:35.354Z,1.48
2023-02-18T08:48:18.538Z,1.55
2023-02-18T08:50:59.056Z,1.48
2023-02-18T08:54:00.567Z,1.30
2023-02-18T08:57:01.997Z,1.70
2023-02-18T09:00:04.059Z,1.73
2023-02-18T09:03:05.817Z,1.70
2023-02-18T09:06:07.927Z,2.67
2023-02-18T09:09:10.291Z,2.38
2023-02-18T09:12:11.726Z,1.98
2023-02-18T09:15:13.279Z,3.20
2023-02-18T09:18:14.729Z,3.70
2023-02-18T09:21:18.955Z,3.83
2023-02-18T09:24:20.740Z,3.45
2023-02-18T09:27:22.276Z,2.05
2023-02-18T09:30:23.828Z,3.40
2023-02-18T09:33:25.257Z,2.67
2023-02-18T09:36:27.778Z,2.47
2023-02-18T09:39:29.410Z,1.88
2023-02-18T09:42:34.830Z,1.98
2023-02-18T09:45:36.337Z,2.00
2023-02-18T09:48:37.962Z,2.92
2023-02-18T09:51:39.601Z,1.38
2023-02-18T09:54:41.233Z,2.13
2023-02-18T09:57:49.302Z,1.50
2023-02-18T10:01:21.985Z,1.08
2023-02-18T10:04:43.018Z,1.65
2023-02-18T10:07:46.583Z,1.30
2023-02-18T10:10:48.183Z,1.40
2023-02-18T10:13:50.761Z,1.50
2023-02-18T10:16:53.712Z,1.48
2023-02-18T10:19:56.873Z,1.50
2023-02-18T10:23:01.236Z,1.20
2023-02-18T10:26:07.585Z,1.52
2023-02-18T10:29:20.977Z,1.50
2023-02-18T10:32:27.565Z,1.45
2023-02-18T10:35:38.447Z,0.90
2023-02-18T10:39:03.182Z,1.77
2023-02-18T10:42:23.414Z,1.88
2023-02-18T10:45:56.989Z,1.40
2023-02-18T10:49:09.673Z,1.23
2023-02-18T10:52:17.452Z,1.50
2023-02-18T10:55:19.177Z,1.90
2023-02-18T10:58:35.938Z,1.80
2023-02-18T11:01:38.202Z,1.45
2023-02-18T11:04:42.353Z,1.95
2023-02-18T11:07:48.811Z,1.48
2023-02-18T11:10:50.903Z,1.70
2023-02-18T11:13:58.614Z,1.20
2023-02-18T11:17:09.833Z,1.50
2023-02-18T11:20:23.393Z,1.65
2023-02-18T11:23:25.732Z,1.50
2023-02-18T11:26:33.714Z,2.40
2023-02-18T11:29:35.606Z,1.63
2023-02-18T11:32:38.124Z,1.48
2023-02-18T11:35:39.836Z,1.30
2023-02-18T11:38:49.363Z,1.13
2023-02-18T11:41:56.775Z,1.60
2023-02-18T11:45:00.331Z,1.23
2023-02-18T11:48:19.103Z,1.65
2023-02-18T11:51:28.330Z,1.60
2023-02-18T11:54:31.498Z,1.40
2023-02-18T11:57:36.944Z,1.00
2023-02-18T12:00:42.670Z,1.30
2023-02-18T12:03:54.626Z,1.52
2023-02-18T12:07:13.973Z,1.25
2023-02-18T12:10:25.206Z,1.30
2023-02-18T12:13:42.878Z,1.65
2023-02-18T12:17:07.063Z,1.60
2023-02-18T12:20:34.916Z,1.73
2023-02-18T12:24:04.302Z,2.08
2023-02-18T12:27:20.676Z,1.42
2023-02-18T12:30:43.455Z,1.20
2023-02-18T12:34:10.325Z,1.23
2023-02-18T12:37:32.452Z,1.70
2023-02-18T12:41:05.873Z,1.92
2023-02-18T12:44:22.561Z,1.52
2023-02-18T12:47:46.968Z,1.80
2023-02-18T12:51:13.420Z,2.28
2023-02-18T12:54:29.961Z,1.85
2023-02-18T12:57:43.254Z,2.45
2023-02-18T13:01:04.710Z,1.60
2023-02-18T13:04:25.805Z,1.70
2023-02-18T13:07:34.240Z,1.80
2023-02-18T13:11:08.997Z,1.80
2023-02-18T13:17:36.618Z,1.80
2023-02-18T13:20:46.647Z,3.00
2023-02-18T13:24:02.528Z,1.90
2023-02-18T13:27:22.851Z,1.90
2023-02-18T13:30:36.431Z,1.60
2023-02-18T13:33:55.683Z,2.03
2023-02-18T13:37:08.684Z,1.77
2023-02-18T13:40:19.600Z,2.22
2023-02-18T13:43:21.124Z,1.92
2023-02-18T13:46:24.555Z,1.90
2023-02-18T13:49:32.238Z,2.20
2023-02-18T13:52:33.746Z,1.77
2023-02-18T13:55:56.654Z,1.92
2023-02-18T13:59:09.102Z,2.35
2023-02-18T14:02:19.610Z,2.60
2023-02-18T14:05:23.827Z,2.83
2023-02-18T14:08:35.827Z,2.50
2023-02-18T14:12:23.691Z,2.05
2023-02-18T14:15:25.157Z,1.88
2023-02-18T14:18:39.908Z,2.47
2023-02-18T14:21:43.283Z,2.20
2023-02-18T14:24:49.803Z,2.25
2023-02-18T14:27:53.609Z,2.28
2023-02-18T14:30:55.264Z,2.22
2023-02-18T14:33:59.577Z,2.38
2023-02-18T14:37:19.439Z,1.85
2023-02-18T14:40:41.416Z,2.28
2023-02-18T14:43:52.324Z,2.00
2023-02-18T14:47:02.174Z,1.95
2023-02-18T14:50:11.168Z,2.45
2023-02-18T14:53:18.526Z,2.63
2023-02-18T14:56:22.003Z,2.45
2023-02-18T14:59:28.357Z,2.20
2023-02-18T15:02:32.995Z,1.92
2023-02-18T15:05:38.127Z,2.10
2023-02-18T15:08:40.284Z,2.05
2023-02-18T15:11:54.846Z,2.28
2023-02-18T15:15:02.563Z,2.38
2023-02-18T15:18:05.130Z,2.17
2023-02-18T15:21:19.802Z,2.20
2023-02-18T15:24:32.608Z,2.28
2023-02-18T15:27:39.354Z,2.20
2023-02-18T15:30:40.866Z,1.90
2023-02-18T15:33:44.462Z,2.78
2023-02-18T15:36:53.220Z,1.98
2023-02-18T15:39:54.799Z,2.40
2023-02-18T15:42:58.876Z,1.98
2023-02-18T15:49:07.667Z,2.10
2023-02-18T15:52:09.222Z,2.00
2023-02-18T15:55:27.038Z,2.70
2023-02-18T15:58:32.648Z,2.10
2023-02-18T16:01:34.598Z,1.83
2023-02-18T16:04:41.427Z,2.25
2023-02-18T16:07:52.573Z,2.00
2023-02-18T16:11:03.183Z,1.92
2023-02-18T16:14:07.892Z,2.40
2023-02-18T16:17:12.077Z,2.10
2023-02-18T16:20:30.676Z,2.33
2023-02-18T16:23:54.339Z,2.03
2023-02-18T16:27:00.300Z,2.22
2023-02-18T16:30:14.724Z,2.72
2023-02-18T16:33:16.224Z,2.25
2023-02-18T16:36:18.027Z,2.20
2023-02-18T16:39:19.493Z,2.63
2023-02-18T16:42:21.141Z,1.95
2023-02-18T16:45:32.431Z,2.25
2023-02-18T16:48:37.390Z,2.70
2023-02-18T16:51:39.573Z,2.85
2023-02-18T16:54:41.797Z,2.20
2023-02-18T16:57:43.262Z,2.50
2023-02-18T17:00:46.803Z,2.38
2023-02-18T17:03:48.984Z,2.28
2023-02-18T17:06:50.534Z,2.63
2023-02-18T17:09:52.037Z,2.78
2023-02-18T17:12:53.481Z,2.42
2023-02-18T17:15:57.112Z,2.28
2023-02-18T17:18:58.605Z,2.58
2023-02-18T17:22:00.105Z,3.00
2023-02-18T17:25:01.575Z,3.00
2023-02-18T17:28:03.487Z,2.72
2023-02-18T17:31:05.301Z,2.90
2023-02-18T17:34:09.408Z,2.75
2023-02-18T17:40:17.878Z,3.10
2023-02-18T17:43:19.753Z,3.22
2023-02-18T17:46:22.056Z,3.90
2023-02-18T17:49:23.701Z,4.72
2023-02-18T17:52:30.677Z,2.80
2023-02-18T17:55:35.321Z,2.70
2023-02-18T17:58:36.765Z,2.70
2023-02-18T18:01:38.540Z,3.53
2023-02-18T18:04:40.066Z,2.90
2023-02-18T18:07:41.588Z,2.92
2023-02-18T18:10:54.892Z,2.42
2023-02-18T18:13:57.912Z,2.95
2023-02-18T18:17:00.237Z,2.70
2023-02-18T18:20:01.714Z,2.78
2023-02-18T18:23:05.180Z,3.47
2023-02-18T18:26:06.625Z,2.75
2023-02-18T18:29:08.207Z,3.17
2023-02-18T18:32:09.728Z,2.70
2023-02-18T18:35:35.538Z,2.58
2023-02-18T18:38:37.000Z,2.72
2023-02-18T18:41:38.460Z,2.75
2023-02-18T18:44:40.768Z,2.83
2023-02-18T18:47:42.209Z,2.67
2023-02-18T18:50:44.257Z,2.50
2023-02-18T18:53:45.916Z,2.65
2023-02-18T18:56:50.193Z,2.70
2023-02-18T18:59:51.726Z,2.53
2023-02-18T19:02:53.348Z,3.00
2023-02-18T19:05:55.555Z,2.80
2023-02-18T19:08:57.171Z,2.85
2023-02-18T19:11:58.648Z,2.63
2023-02-18T19:15:00.151Z,2.72
2023-02-18T19:18:01.698Z,3.00
2023-02-18T19:21:04.701Z,1.98
2023-02-18T19:24:06.188Z,2.97
2023-02-18T19:27:10.128Z,2.97
2023-02-18T19:30:22.856Z,2.80
2023-02-18T19:33:24.376Z,2.78
2023-02-18T19:36:25.944Z,2.88
2023-02-18T19:39:27.397Z,2.92
2023-02-18T19:42:29.773Z,2.50
2023-02-18T19:45:31.905Z,2.42
2023-02-18T19:48:33.348Z,2.83
2023-02-18T19:51:34.835Z,2.95
2023-02-18T19:54:36.304Z,2.50
2023-02-18T19:57:38.085Z,3.00
2023-02-18T20:00:40.434Z,2.75
2023-02-18T20:03:42.828Z,3.08
2023-02-18T20:06:44.292Z,3.03
2023-02-18T20:09:46.195Z,3.10
2023-02-18T20:12:53.986Z,2.63
2023-02-18T20:15:55.622Z,2.90
2023-02-18T20:18:57.148Z,2.80
2023-02-18T20:22:00.124Z,2.70
2023-02-18T20:25:01.745Z,2.92
2023-02-18T20:28:03.208Z,2.95
2023-02-18T20:31:07.149Z,2.90
2023-02-18T20:37:11.495Z,2.80
2023-02-18T20:40:13.015Z,2.92
2023-02-18T20:43:14.458Z,3.40
2023-02-18T20:46:18.926Z,3.03
2023-02-18T20:49:21.906Z,3.05
2023-02-18T20:52:23.379Z,3.45
2023-02-18T20:55:25.009Z,3.05
2023-02-18T20:58:27.122Z,3.00
2023-02-18T21:01:28.780Z,3.20
2023-02-18T21:04:30.289Z,3.13
2023-02-18T21:07:31.842Z,3.33
2023-02-18T21:10:33.253Z,3.20
2023-02-18T21:13:35.170Z,3.17
2023-02-18T21:16:39.750Z,3.80
2023-02-18T21:19:41.663Z,3.35
2023-02-18T21:22:43.132Z,3.15
2023-02-18T21:25:44.994Z,3.67
2023-02-18T21:28:48.374Z,3.40
2023-02-18T21:31:50.021Z,3.50
2023-02-18T21:34:51.650Z,3.00
2023-02-18T21:37:53.122Z,3.30
2023-02-18T21:40:54.619Z,3.50
2023-02-18T21:43:56.509Z,3.40
2023-02-18T21:46:58.035Z,3.38
2023-02-18T21:49:59.474Z,3.35
2023-02-18T21:53:04.134Z,3.70
2023-02-18T21:56:11.396Z,3.60
2023-02-18T21:59:12.951Z,3.30
2023-02-18T22:02:17.565Z,3.35
2023-02-18T22:05:19.074Z,3.20
2023-02-18T22:08:21.208Z,3.45
2023-02-18T22:11:22.668Z,3.35
2023-02-18T22:14:24.136Z,3.17
2023-02-18T22:17:26.022Z,3.55
2023-02-18T22:20:27.561Z,3.45
2023-02-18T22:23:31.276Z,3.35
2023-02-18T22:26:32.997Z,3.33
2023-02-18T22:29:34.576Z,3.30
2023-02-18T22:32:36.114Z,3.53
2023-02-18T22:35:37.602Z,2.83
2023-02-18T22:38:39.788Z,3.25
2023-02-18T22:41:42.141Z,3.40
2023-02-18T22:44:43.580Z,3.30
2023-02-18T22:47:45.044Z,3.25
2023-02-18T22:50:46.570Z,3.35
2023-02-18T22:53:48.074Z,3.20
2023-02-18T22:56:49.537Z,3.60
2023-02-18T22:59:50.958Z,3.00
2023-02-18T23:02:53.262Z,3.17
2023-02-18T23:05:55.352Z,3.30
2023-02-18T23:08:57.190Z,3.42
2023-02-18T23:11:58.692Z,2.67
2023-02-18T23:15:00.209Z,3.40
2023-02-18T23:18:01.645Z,3.03
2023-02-18T23:21:20.734Z,2.97
2023-02-18T23:24:22.559Z,3.55
2023-02-18T23:27:24.494Z,3.00
2023-02-18T23:30:26.115Z,3.58
2023-02-18T23:33:27.886Z,3.58
2023-02-18T23:36:31.085Z,3.38
2023-02-18T23:39:32.900Z,3.00
2023-02-18T23:42:34.396Z,2.63
2023-02-18T23:45:35.860Z,3.30
2023-02-18T23:48:38.418Z,3.45
2023-02-18T23:51:40.019Z,3.00
2023-02-18T23:54:41.515Z,3.05
2023-02-18T23:57:42.993Z,3.25
